• Join FlightAware (Why Join?)
  • Login
  • US Flag 
04:36AM EST


 

Airport Tracker/Info


-or-


 

Live Flight TrackerFlight Track Log ✈ RPA3159 ✈ 15-Jul-2013 ✈ KBTV - KPHL

Flight Track Log - Related Links

Times and Time Zones

All times are in EDT time to prevent confusion due to time zone crossing. See the RPA3159 flight status page for this flight to view local times or setup timezone preferences in your user account.

Time Position Orientation Groundspeed Altitude Reporting Facility
EDT Latitude Longitude Course Direction KTS MPH feet Rate Location/Type
11:37AM 44.1974 -73.2510 195° South  Level FlightAware Approximate
11:37AM 44.2925 -73.1419 195° South 293 337 7,900  Level Boston Center
11:38AM 44.1071 -73.2849 195° South  Level FlightAware Approximate
11:38AM 44.2089 -73.1758 196° South 305 351 10,900  Level Boston Center
11:39AM 44.0164 -73.3168 194° South  Level FlightAware Approximate
11:39AM 44.1231 -73.2325 205° Southwest 331 381 11,800  Level Boston Center
11:40AM 43.9143 -73.3509 195° South  Level FlightAware Approximate
11:40AM 44.0392 -73.3094 213° Southwest 358 412 12,100  Level Boston Center
11:41AM 43.8130 -73.3890 195° South  Level FlightAware Approximate
11:41AM 43.9758 -73.4094 229° Southwest 364 419 13,900  Level Boston Center
11:42AM 43.7116 -73.4270 195° South  Level FlightAware Approximate
11:42AM 43.9167 -73.5239 234° Southwest 364 419 15,800  Level Boston Center
11:43AM 43.8322 -73.6144 218° Southwest 369 425 17,700 1,800 Climbing Boston Center
11:44AM 43.7083 -73.7181 211° Southwest 396 456 19,800 1,860 Climbing Boston Center
11:45AM 43.6114 -73.7964 210° Southwest 409 471 21,500 1,080 Climbing Boston Center
11:46AM 43.5106 -73.8800 211° Southwest 419 482 22,000 240 Climbing Boston Center
11:47AM 43.4094 -73.9633 211° Southwest 426 490 22,000  Level Boston Center
11:48AM 43.3186 -74.0381 211° Southwest 433 498 22,000  Level Boston Center
11:49AM 43.2175 -74.1211 211° Southwest 433 498 22,000  Level Boston Center
11:50AM 43.1161 -74.2064 212° Southwest 433 498 22,000  Level Boston Center
11:51AM 43.0147 -74.2886 211° Southwest 433 498 22,000  Level Boston Center
11:52AM 42.9156 -74.3681 210° Southwest 433 498 22,000  Level Boston Center
11:53AM 42.8097 -74.4553 211° Southwest 433 498 22,000  Level Boston Center
11:54AM 42.7083 -74.5367 211° Southwest 433 498 22,000  Level Boston Center
11:55AM 42.6089 -74.6181 211° Southwest 433 498 22,000  Level Boston Center
11:57AM 42.5050 -74.7017 211° Southwest 433 498 22,000  Level Boston Center
11:58AM 42.3822 -74.7983 210° Southwest 433 498 22,000  Level Boston Center
12:00PM 42.1292 -74.9989 210° Southwest 436 502 22,000 -480 Level New York Center
12:01PM 42.0283 -75.0817 211° Southwest 436 502 20,500 -1,500 Descending New York Center
12:02PM 41.9339 -75.1619 212° Southwest 418 481 19,000 -780 Descending New York Center
12:03PM 41.8394 -75.2364 210° Southwest 413 475 19,000 -480 Level New York Center
12:04PM 41.7361 -75.3214 212° Southwest 413 475 18,100 -1,500 Descending New York Center
12:05PM 41.6417 -75.3981 211° Southwest 401 461 16,100 -2,040 Descending New York Center
12:06PM 41.5514 -75.4694 211° Southwest 401 461 14,100 -2,040 Descending New York Center
12:07PM 41.4717 -75.5331 211° Southwest 383 441 12,200 -1,080 Descending New York Center
12:08PM 41.3878 -75.5992 211° Southwest 369 425 12,000 -120 Descending New York Center
12:09PM 41.2997 -75.6672 210° Southwest 364 419 12,000  Level New York Center
12:10PM 41.1925 -75.6869 188° South 357 411 12,000  Level New York Center
12:11PM 41.0925 -75.6881 180° South 362 417 12,000  Level New York Center
12:12PM 40.9883 -75.6889 180° South 373 429 12,000  Level New York Center
12:13PM 40.8883 -75.6869 179° South 373 429 12,000  Level New York Center
12:14PM 40.7864 -75.6853 179° South 368 423 12,000  Level New York Center
12:15PM 40.6947 -75.6842 179° South 368 423 12,000  Level New York Center
12:16PM 40.5831 -75.6625 172° South 368 423 12,000 -360 Level New York Center
12:17PM 40.5303 -75.5822 131° Southeast 342 394 11,400 -1,020 Descending New York Center
12:18PM 40.4611 -75.4847 133° Southeast 337 388 10,000 -960 Descending New York Center
12:19PM 40.3853 -75.4575 165° South 303 349 9,500 -960 Descending New York Center
12:20PM 40.3092 -75.4308 165° South 268 308 8,100 -840 Descending New York Center
12:21PM 40.2414 -75.4044 163° South 262 302 7,900 -660 Descending New York Center
12:22PM 40.1847 -75.3625 151° Southeast 256 295 6,900 -960 Descending New York Center
12:23PM 40.1181 -75.3092 149° Southeast 256 295 6,000 -480 Descending New York Center
12:24PM 40.0719 -75.2575 139° Southeast 244 281 6,000  Level New York Center
12:25PM 40.0600 -75.1861 102° East 214 246 6,000  Level New York Center
12:26PM 40.0486 -75.1042 100° East 214 246 6,000  Level New York Center
12:27PM 40.0361 -75.0408 104° East 202 232 6,000  Level New York Center
12:28PM 40.0000 -74.9667 122° Southeast 207 238 6,000 -660 Level Philadelphia TRACON
12:29PM 39.9500 -75.0000 207° Southwest 180 207 4,500 -1,440 Descending Philadelphia TRACON
12:30PM 39.9333 -75.0500 247° West 182 209 3,200 -1,440 Descending Philadelphia TRACON